sensor_id;sensor_type;location;lat;lon;timestamp;P1;durP1;ratioP1;P2;durP2;ratioP2
30247;SDS011;17063;50.892;4.702;2023-01-24T00:01:18;41.45;;;22.88;;
30247;SDS011;17063;50.892;4.702;2023-01-24T00:03:45;46.88;;;23.40;;
30247;SDS011;17063;50.892;4.702;2023-01-24T00:06:12;44.47;;;23.70;;
30247;SDS011;17063;50.892;4.702;2023-01-24T00:08:39;47.35;;;25.10;;
30247;SDS011;17063;50.892;4.702;2023-01-24T00:11:07;45.42;;;23.50;;
30247;SDS011;17063;50.892;4.702;2023-01-24T00:13:35;45.53;;;22.88;;
30247;SDS011;17063;50.892;4.702;2023-01-24T00:16:04;46.90;;;23.57;;
30247;SDS011;17063;50.892;4.702;2023-01-24T00:18:33;46.33;;;23.20;;
30247;SDS011;17063;50.892;4.702;2023-01-24T00:21:01;44.63;;;22.83;;
30247;SDS011;17063;50.892;4.702;2023-01-24T00:23:36;44.35;;;23.35;;
30247;SDS011;17063;50.892;4.702;2023-01-24T00:26:03;48.53;;;22.77;;
30247;SDS011;17063;50.892;4.702;2023-01-24T00:28:30;43.05;;;22.48;;
30247;SDS011;17063;50.892;4.702;2023-01-24T00:30:58;42.25;;;22.58;;
30247;SDS011;17063;50.892;4.702;2023-01-24T00:33:25;42.60;;;23.38;;
30247;SDS011;17063;50.892;4.702;2023-01-24T00:35:52;48.13;;;23.23;;
30247;SDS011;17063;50.892;4.702;2023-01-24T00:38:20;40.88;;;21.50;;
30247;SDS011;17063;50.892;4.702;2023-01-24T00:40:47;45.30;;;24.37;;
30247;SDS011;17063;50.892;4.702;2023-01-24T00:43:14;43.08;;;22.75;;
30247;SDS011;17063;50.892;4.702;2023-01-24T00:45:42;38.75;;;21.75;;
30247;SDS011;17063;50.892;4.702;2023-01-24T00:48:10;36.33;;;20.10;;
30247;SDS011;17063;50.892;4.702;2023-01-24T00:50:38;36.78;;;20.10;;
30247;SDS011;17063;50.892;4.702;2023-01-24T00:53:05;35.15;;;20.35;;
30247;SDS011;17063;50.892;4.702;2023-01-24T00:55:32;39.67;;;20.83;;
30247;SDS011;17063;50.892;4.702;2023-01-24T00:57:59;40.28;;;21.10;;
30247;SDS011;17063;50.892;4.702;2023-01-24T01:00:26;39.38;;;21.42;;
30247;SDS011;17063;50.892;4.702;2023-01-24T01:02:53;36.25;;;19.92;;
30247;SDS011;17063;50.892;4.702;2023-01-24T01:05:20;35.97;;;19.98;;
30247;SDS011;17063;50.892;4.702;2023-01-24T01:07:47;34.90;;;19.70;;
30247;SDS011;17063;50.892;4.702;2023-01-24T01:10:14;34.65;;;19.27;;
30247;SDS011;17063;50.892;4.702;2023-01-24T01:12:41;36.65;;;19.98;;
30247;SDS011;17063;50.892;4.702;2023-01-24T01:15:08;40.08;;;20.65;;
30247;SDS011;17063;50.892;4.702;2023-01-24T01:17:35;40.58;;;21.38;;
30247;SDS011;17063;50.892;4.702;2023-01-24T01:20:02;34.70;;;19.73;;
30247;SDS011;17063;50.892;4.702;2023-01-24T01:22:29;41.70;;;21.50;;
30247;SDS011;17063;50.892;4.702;2023-01-24T01:24:56;39.17;;;20.80;;
30247;SDS011;17063;50.892;4.702;2023-01-24T01:27:23;39.55;;;19.98;;
30247;SDS011;17063;50.892;4.702;2023-01-24T01:29:50;36.17;;;20.42;;
30247;SDS011;17063;50.892;4.702;2023-01-24T01:32:16;38.60;;;20.80;;
30247;SDS011;17063;50.892;4.702;2023-01-24T01:34:43;37.50;;;19.92;;
30247;SDS011;17063;50.892;4.702;2023-01-24T01:37:10;43.13;;;21.17;;
30247;SDS011;17063;50.892;4.702;2023-01-24T01:39:38;40.40;;;21.48;;
30247;SDS011;17063;50.892;4.702;2023-01-24T01:42:05;37.63;;;20.98;;
30247;SDS011;17063;50.892;4.702;2023-01-24T01:44:32;39.10;;;21.17;;
30247;SDS011;17063;50.892;4.702;2023-01-24T01:50:00;41.20;;;21.33;;
30247;SDS011;17063;50.892;4.702;2023-01-24T01:52:41;39.73;;;20.33;;
30247;SDS011;17063;50.892;4.702;2023-01-24T01:55:14;36.03;;;20.35;;
30247;SDS011;17063;50.892;4.702;2023-01-24T01:57:43;36.38;;;20.00;;
30247;SDS011;17063;50.892;4.702;2023-01-24T02:00:11;36.38;;;19.67;;
30247;SDS011;17063;50.892;4.702;2023-01-24T02:02:41;35.92;;;19.65;;
30247;SDS011;17063;50.892;4.702;2023-01-24T02:05:11;38.90;;;20.17;;
30247;SDS011;17063;50.892;4.702;2023-01-24T02:10:07;32.45;;;18.20;;
30247;SDS011;17063;50.892;4.702;2023-01-24T02:12:39;32.72;;;18.77;;
30247;SDS011;17063;50.892;4.702;2023-01-24T02:15:09;34.05;;;18.92;;
30247;SDS011;17063;50.892;4.702;2023-01-24T02:17:56;33.63;;;18.20;;
30247;SDS011;17063;50.892;4.702;2023-01-24T02:28:25;33.78;;;18.40;;
30247;SDS011;17063;50.892;4.702;2023-01-24T02:30:56;33.37;;;18.33;;
30247;SDS011;17063;50.892;4.702;2023-01-24T02:33:23;34.03;;;18.30;;
30247;SDS011;17063;50.892;4.702;2023-01-24T02:35:51;34.88;;;17.58;;
30247;SDS011;17063;50.892;4.702;2023-01-24T02:38:53;31.93;;;17.40;;
30247;SDS011;17063;50.892;4.702;2023-01-24T02:41:24;29.42;;;16.20;;
30247;SDS011;17063;50.892;4.702;2023-01-24T02:43:53;35.28;;;18.33;;
30247;SDS011;17063;50.892;4.702;2023-01-24T02:46:23;32.20;;;16.38;;
30247;SDS011;17063;50.892;4.702;2023-01-24T02:48:50;33.58;;;18.27;;
30247;SDS011;17063;50.892;4.702;2023-01-24T02:51:17;34.67;;;18.08;;
30247;SDS011;17063;50.892;4.702;2023-01-24T02:54:03;31.90;;;17.25;;
30247;SDS011;17063;50.892;4.702;2023-01-24T02:56:30;27.45;;;15.65;;
30247;SDS011;17063;50.892;4.702;2023-01-24T02:59:15;29.55;;;15.25;;
30247;SDS011;17063;50.892;4.702;2023-01-24T03:01:45;30.20;;;16.23;;
30247;SDS011;17063;50.892;4.702;2023-01-24T03:04:12;26.48;;;14.38;;
30247;SDS011;17063;50.892;4.702;2023-01-24T03:06:40;26.65;;;15.73;;
30247;SDS011;17063;50.892;4.702;2023-01-24T03:09:07;29.35;;;16.88;;
30247;SDS011;17063;50.892;4.702;2023-01-24T03:11:48;25.85;;;14.75;;
30247;SDS011;17063;50.892;4.702;2023-01-24T03:14:16;27.58;;;15.43;;
30247;SDS011;17063;50.892;4.702;2023-01-24T03:17:02;27.35;;;15.00;;
30247;SDS011;17063;50.892;4.702;2023-01-24T03:19:47;29.02;;;15.63;;
30247;SDS011;17063;50.892;4.702;2023-01-24T03:22:33;25.45;;;14.55;;
30247;SDS011;17063;50.892;4.702;2023-01-24T03:25:18;26.35;;;14.95;;
30247;SDS011;17063;50.892;4.702;2023-01-24T03:28:04;27.35;;;14.63;;
30247;SDS011;17063;50.892;4.702;2023-01-24T03:30:52;26.48;;;14.30;;
30247;SDS011;17063;50.892;4.702;2023-01-24T03:33:37;30.25;;;15.07;;
30247;SDS011;17063;50.892;4.702;2023-01-24T03:36:22;31.00;;;15.90;;
30247;SDS011;17063;50.892;4.702;2023-01-24T03:39:00;27.58;;;15.52;;
30247;SDS011;17063;50.892;4.702;2023-01-24T03:41:46;28.45;;;14.43;;
30247;SDS011;17063;50.892;4.702;2023-01-24T03:44:12;27.58;;;15.77;;
30247;SDS011;17063;50.892;4.702;2023-01-24T03:46:40;26.17;;;15.23;;
30247;SDS011;17063;50.892;4.702;2023-01-24T03:49:10;29.70;;;15.82;;
30247;SDS011;17063;50.892;4.702;2023-01-24T03:51:38;28.98;;;15.43;;
30247;SDS011;17063;50.892;4.702;2023-01-24T03:54:24;27.73;;;14.73;;
30247;SDS011;17063;50.892;4.702;2023-01-24T03:56:57;28.65;;;15.88;;
30247;SDS011;17063;50.892;4.702;2023-01-24T03:59:25;26.08;;;14.90;;
30247;SDS011;17063;50.892;4.702;2023-01-24T04:01:51;28.48;;;15.27;;
30247;SDS011;17063;50.892;4.702;2023-01-24T04:04:23;29.02;;;15.32;;
30247;SDS011;17063;50.892;4.702;2023-01-24T04:07:10;28.23;;;15.38;;
30247;SDS011;17063;50.892;4.702;2023-01-24T04:09:53;28.10;;;15.90;;
30247;SDS011;17063;50.892;4.702;2023-01-24T04:12:20;27.90;;;15.65;;
30247;SDS011;17063;50.892;4.702;2023-01-24T04:14:47;28.27;;;15.70;;
30247;SDS011;17063;50.892;4.702;2023-01-24T04:17:14;27.55;;;15.82;;
30247;SDS011;17063;50.892;4.702;2023-01-24T04:19:49;30.08;;;15.80;;
30247;SDS011;17063;50.892;4.702;2023-01-24T04:22:16;28.98;;;14.85;;
30247;SDS011;17063;50.892;4.702;2023-01-24T04:24:44;27.50;;;14.23;;
30247;SDS011;17063;50.892;4.702;2023-01-24T04:27:11;27.08;;;14.27;;
30247;SDS011;17063;50.892;4.702;2023-01-24T04:29:59;27.40;;;15.43;;
30247;SDS011;17063;50.892;4.702;2023-01-24T04:32:29;29.48;;;15.57;;
30247;SDS011;17063;50.892;4.702;2023-01-24T04:35:00;31.67;;;16.13;;
30247;SDS011;17063;50.892;4.702;2023-01-24T04:37:47;29.52;;;15.95;;
30247;SDS011;17063;50.892;4.702;2023-01-24T04:40:19;29.30;;;16.20;;
30247;SDS011;17063;50.892;4.702;2023-01-24T04:42:46;28.70;;;16.90;;
30247;SDS011;17063;50.892;4.702;2023-01-24T04:45:13;31.70;;;17.08;;
30247;SDS011;17063;50.892;4.702;2023-01-24T04:47:40;30.35;;;17.05;;
30247;SDS011;17063;50.892;4.702;2023-01-24T04:50:07;30.70;;;16.92;;
30247;SDS011;17063;50.892;4.702;2023-01-24T04:52:35;31.35;;;18.00;;
30247;SDS011;17063;50.892;4.702;2023-01-24T04:55:05;29.75;;;16.77;;
30247;SDS011;17063;50.892;4.702;2023-01-24T04:57:33;36.90;;;18.07;;
30247;SDS011;17063;50.892;4.702;2023-01-24T05:00:00;33.83;;;18.73;;
30247;SDS011;17063;50.892;4.702;2023-01-24T05:02:28;33.78;;;18.58;;
30247;SDS011;17063;50.892;4.702;2023-01-24T05:04:55;33.70;;;18.23;;
30247;SDS011;17063;50.892;4.702;2023-01-24T05:07:22;32.70;;;17.77;;
30247;SDS011;17063;50.892;4.702;2023-01-24T05:09:57;34.75;;;18.30;;
30247;SDS011;17063;50.892;4.702;2023-01-24T05:12:25;36.83;;;19.83;;
30247;SDS011;17063;50.892;4.702;2023-01-24T05:14:55;36.42;;;19.52;;
30247;SDS011;17063;50.892;4.702;2023-01-24T05:17:23;37.67;;;19.95;;
30247;SDS011;17063;50.892;4.702;2023-01-24T05:19:52;36.13;;;20.00;;
30247;SDS011;17063;50.892;4.702;2023-01-24T05:22:20;36.83;;;20.92;;
30247;SDS011;17063;50.892;4.702;2023-01-24T05:24:47;39.60;;;20.45;;
30247;SDS011;17063;50.892;4.702;2023-01-24T05:27:14;35.00;;;19.42;;
30247;SDS011;17063;50.892;4.702;2023-01-24T05:29:45;35.45;;;20.08;;
30247;SDS011;17063;50.892;4.702;2023-01-24T05:32:11;36.05;;;20.25;;
30247;SDS011;17063;50.892;4.702;2023-01-24T05:34:40;37.83;;;19.63;;
30247;SDS011;17063;50.892;4.702;2023-01-24T05:37:07;36.95;;;20.13;;
30247;SDS011;17063;50.892;4.702;2023-01-24T05:39:38;34.28;;;19.38;;
30247;SDS011;17063;50.892;4.702;2023-01-24T05:42:05;35.10;;;20.05;;
30247;SDS011;17063;50.892;4.702;2023-01-24T05:44:39;36.83;;;19.65;;
30247;SDS011;17063;50.892;4.702;2023-01-24T05:47:06;34.03;;;19.77;;
30247;SDS011;17063;50.892;4.702;2023-01-24T05:49:37;35.97;;;19.38;;
30247;SDS011;17063;50.892;4.702;2023-01-24T05:52:04;36.45;;;20.20;;
30247;SDS011;17063;50.892;4.702;2023-01-24T05:54:51;35.40;;;19.90;;
30247;SDS011;17063;50.892;4.702;2023-01-24T05:57:24;37.65;;;19.65;;
30247;SDS011;17063;50.892;4.702;2023-01-24T06:00:09;39.10;;;19.52;;
30247;SDS011;17063;50.892;4.702;2023-01-24T06:03:00;37.97;;;19.83;;
30247;SDS011;17063;50.892;4.702;2023-01-24T06:05:27;42.00;;;22.13;;
30247;SDS011;17063;50.892;4.702;2023-01-24T06:07:54;34.83;;;20.00;;
30247;SDS011;17063;50.892;4.702;2023-01-24T06:10:21;34.92;;;19.65;;
30247;SDS011;17063;50.892;4.702;2023-01-24T06:13:01;39.58;;;19.40;;
30247;SDS011;17063;50.892;4.702;2023-01-24T06:15:28;38.20;;;19.92;;
30247;SDS011;17063;50.892;4.702;2023-01-24T06:17:56;38.15;;;20.65;;
30247;SDS011;17063;50.892;4.702;2023-01-24T06:20:22;38.40;;;20.67;;
30247;SDS011;17063;50.892;4.702;2023-01-24T06:22:56;37.45;;;20.80;;
30247;SDS011;17063;50.892;4.702;2023-01-24T06:25:31;35.70;;;20.02;;
30247;SDS011;17063;50.892;4.702;2023-01-24T06:27:59;39.05;;;19.55;;
30247;SDS011;17063;50.892;4.702;2023-01-24T06:30:27;36.53;;;20.35;;
30247;SDS011;17063;50.892;4.702;2023-01-24T06:38:20;38.15;;;20.48;;
30247;SDS011;17063;50.892;4.702;2023-01-24T06:40:49;43.65;;;21.30;;
30247;SDS011;17063;50.892;4.702;2023-01-24T06:43:19;40.45;;;21.83;;
30247;SDS011;17063;50.892;4.702;2023-01-24T06:45:46;45.55;;;23.02;;
30247;SDS011;17063;50.892;4.702;2023-01-24T06:48:13;43.05;;;22.40;;
30247;SDS011;17063;50.892;4.702;2023-01-24T06:50:40;39.58;;;21.60;;
30247;SDS011;17063;50.892;4.702;2023-01-24T06:53:07;41.05;;;22.33;;
30247;SDS011;17063;50.892;4.702;2023-01-24T06:55:36;42.17;;;21.92;;
30247;SDS011;17063;50.892;4.702;2023-01-24T06:58:06;46.15;;;22.65;;
30247;SDS011;17063;50.892;4.702;2023-01-24T07:00:33;38.55;;;21.73;;
30247;SDS011;17063;50.892;4.702;2023-01-24T07:03:00;40.33;;;22.95;;
30247;SDS011;17063;50.892;4.702;2023-01-24T07:05:29;41.20;;;21.92;;
30247;SDS011;17063;50.892;4.702;2023-01-24T07:07:56;43.55;;;22.20;;
30247;SDS011;17063;50.892;4.702;2023-01-24T07:10:23;41.08;;;21.80;;
30247;SDS011;17063;50.892;4.702;2023-01-24T07:12:50;41.65;;;23.45;;
30247;SDS011;17063;50.892;4.702;2023-01-24T07:15:16;39.00;;;20.42;;
30247;SDS011;17063;50.892;4.702;2023-01-24T07:17:44;32.63;;;16.73;;
30247;SDS011;17063;50.892;4.702;2023-01-24T07:20:11;33.72;;;17.48;;
30247;SDS011;17063;50.892;4.702;2023-01-24T07:22:39;29.48;;;15.80;;
30247;SDS011;17063;50.892;4.702;2023-01-24T07:25:13;30.40;;;16.70;;
30247;SDS011;17063;50.892;4.702;2023-01-24T07:27:42;26.98;;;15.88;;
30247;SDS011;17063;50.892;4.702;2023-01-24T07:30:10;36.10;;;16.95;;
30247;SDS011;17063;50.892;4.702;2023-01-24T07:32:38;31.02;;;16.88;;
30247;SDS011;17063;50.892;4.702;2023-01-24T07:35:05;30.65;;;16.80;;
30247;SDS011;17063;50.892;4.702;2023-01-24T07:37:32;29.80;;;16.10;;
30247;SDS011;17063;50.892;4.702;2023-01-24T07:39:59;29.85;;;16.73;;
30247;SDS011;17063;50.892;4.702;2023-01-24T07:42:26;31.08;;;16.42;;
30247;SDS011;17063;50.892;4.702;2023-01-24T07:44:53;32.28;;;17.40;;
30247;SDS011;17063;50.892;4.702;2023-01-24T07:47:23;32.03;;;17.35;;
30247;SDS011;17063;50.892;4.702;2023-01-24T07:49:52;31.00;;;16.58;;
30247;SDS011;17063;50.892;4.702;2023-01-24T07:52:19;30.25;;;16.92;;
30247;SDS011;17063;50.892;4.702;2023-01-24T07:54:46;32.60;;;17.38;;
30247;SDS011;17063;50.892;4.702;2023-01-24T07:57:13;33.90;;;17.83;;
30247;SDS011;17063;50.892;4.702;2023-01-24T07:59:42;29.48;;;17.08;;
30247;SDS011;17063;50.892;4.702;2023-01-24T08:02:10;30.67;;;16.65;;
30247;SDS011;17063;50.892;4.702;2023-01-24T08:04:37;31.08;;;17.65;;
30247;SDS011;17063;50.892;4.702;2023-01-24T08:07:04;30.33;;;16.75;;
30247;SDS011;17063;50.892;4.702;2023-01-24T08:09:44;28.70;;;16.67;;
30247;SDS011;17063;50.892;4.702;2023-01-24T08:12:12;27.52;;;16.10;;
30247;SDS011;17063;50.892;4.702;2023-01-24T08:14:40;24.42;;;14.82;;
30247;SDS011;17063;50.892;4.702;2023-01-24T08:17:07;25.95;;;15.45;;
30247;SDS011;17063;50.892;4.702;2023-01-24T08:19:34;27.48;;;15.30;;
30247;SDS011;17063;50.892;4.702;2023-01-24T08:22:22;24.77;;;14.40;;
30247;SDS011;17063;50.892;4.702;2023-01-24T08:24:49;24.50;;;14.23;;
30247;SDS011;17063;50.892;4.702;2023-01-24T08:27:16;26.95;;;15.70;;
30247;SDS011;17063;50.892;4.702;2023-01-24T08:29:42;25.70;;;15.18;;
30247;SDS011;17063;50.892;4.702;2023-01-24T08:32:09;28.10;;;16.02;;
30247;SDS011;17063;50.892;4.702;2023-01-24T08:34:36;26.88;;;15.15;;
30247;SDS011;17063;50.892;4.702;2023-01-24T08:37:03;28.42;;;16.10;;
30247;SDS011;17063;50.892;4.702;2023-01-24T08:39:30;26.83;;;16.02;;
30247;SDS011;17063;50.892;4.702;2023-01-24T08:41:57;27.25;;;16.30;;
30247;SDS011;17063;50.892;4.702;2023-01-24T08:44:24;29.88;;;16.95;;
30247;SDS011;17063;50.892;4.702;2023-01-24T08:46:53;32.90;;;17.90;;
30247;SDS011;17063;50.892;4.702;2023-01-24T08:49:21;32.47;;;18.98;;
30247;SDS011;17063;50.892;4.702;2023-01-24T08:51:49;32.35;;;18.15;;
30247;SDS011;17063;50.892;4.702;2023-01-24T08:58:10;36.35;;;18.88;;
30247;SDS011;17063;50.892;4.702;2023-01-24T09:01:09;32.77;;;18.73;;
30247;SDS011;17063;50.892;4.702;2023-01-24T09:03:36;31.83;;;18.48;;
30247;SDS011;17063;50.892;4.702;2023-01-24T09:06:05;31.08;;;17.55;;
30247;SDS011;17063;50.892;4.702;2023-01-24T09:08:33;33.72;;;16.50;;
30247;SDS011;17063;50.892;4.702;2023-01-24T09:11:02;24.80;;;14.18;;
30247;SDS011;17063;50.892;4.702;2023-01-24T09:13:31;27.38;;;15.25;;
30247;SDS011;17063;50.892;4.702;2023-01-24T09:18:52;21.73;;;12.27;;
30247;SDS011;17063;50.892;4.702;2023-01-24T09:21:24;20.42;;;12.80;;
30247;SDS011;17063;50.892;4.702;2023-01-24T09:23:56;21.38;;;12.05;;
30247;SDS011;17063;50.892;4.702;2023-01-24T09:59:16;19.65;;;11.25;;
30247;SDS011;17063;50.892;4.702;2023-01-24T10:04:48;19.65;;;11.60;;
30247;SDS011;17063;50.892;4.702;2023-01-24T11:01:06;17.55;;;11.50;;
30247;SDS011;17063;50.892;4.702;2023-01-24T11:03:45;15.90;;;9.85;;
30247;SDS011;17063;50.892;4.702;2023-01-24T11:09:08;19.45;;;11.20;;
30247;SDS011;17063;50.892;4.702;2023-01-24T11:11:48;18.85;;;11.43;;
30247;SDS011;17063;50.892;4.702;2023-01-24T11:16:53;17.17;;;10.75;;
30247;SDS011;17063;50.892;4.702;2023-01-24T11:21:59;21.10;;;12.02;;
30247;SDS011;17063;50.892;4.702;2023-01-24T11:24:45;18.90;;;11.35;;
30247;SDS011;17063;50.892;4.702;2023-01-24T11:27:16;21.85;;;10.77;;
30247;SDS011;17063;50.892;4.702;2023-01-24T11:29:45;22.38;;;12.05;;
30247;SDS011;17063;50.892;4.702;2023-01-24T11:41:24;18.80;;;11.27;;
30247;SDS011;17063;50.892;4.702;2023-01-24T11:47:38;20.48;;;11.75;;
30247;SDS011;17063;50.892;4.702;2023-01-24T11:50:28;21.73;;;12.57;;
30247;SDS011;17063;50.892;4.702;2023-01-24T13:15:20;27.67;;;14.57;;
30247;SDS011;17063;50.892;4.702;2023-01-24T13:44:36;21.30;;;13.20;;
30247;SDS011;17063;50.892;4.702;2023-01-24T13:55:48;25.43;;;14.17;;
30247;SDS011;17063;50.892;4.702;2023-01-24T14:01:21;24.67;;;14.25;;
30247;SDS011;17063;50.892;4.702;2023-01-24T14:03:56;27.93;;;15.33;;
30247;SDS011;17063;50.892;4.702;2023-01-24T14:06:25;24.60;;;14.37;;
30247;SDS011;17063;50.892;4.702;2023-01-24T14:09:03;24.63;;;14.37;;
30247;SDS011;17063;50.892;4.702;2023-01-24T14:11:52;28.43;;;15.10;;
30247;SDS011;17063;50.892;4.702;2023-01-24T14:14:34;24.75;;;14.68;;
30247;SDS011;17063;50.892;4.702;2023-01-24T14:17:04;25.50;;;14.53;;
30247;SDS011;17063;50.892;4.702;2023-01-24T14:22:37;25.65;;;14.45;;
30247;SDS011;17063;50.892;4.702;2023-01-24T14:28:15;23.23;;;13.60;;
30247;SDS011;17063;50.892;4.702;2023-01-24T14:40:23;22.02;;;13.02;;
30247;SDS011;17063;50.892;4.702;2023-01-24T14:42:58;27.63;;;14.25;;
30247;SDS011;17063;50.892;4.702;2023-01-24T14:45:30;22.75;;;14.20;;
30247;SDS011;17063;50.892;4.702;2023-01-24T14:48:08;25.48;;;14.32;;
30247;SDS011;17063;50.892;4.702;2023-01-24T14:53:28;26.48;;;14.63;;
30247;SDS011;17063;50.892;4.702;2023-01-24T14:56:01;23.33;;;13.82;;
30247;SDS011;17063;50.892;4.702;2023-01-24T14:58:34;29.42;;;14.57;;
30247;SDS011;17063;50.892;4.702;2023-01-24T15:01:02;23.73;;;13.77;;
30247;SDS011;17063;50.892;4.702;2023-01-24T15:03:32;22.77;;;13.70;;
30247;SDS011;17063;50.892;4.702;2023-01-24T15:08:30;23.73;;;13.25;;
30247;SDS011;17063;50.892;4.702;2023-01-24T15:13:30;24.58;;;13.80;;
30247;SDS011;17063;50.892;4.702;2023-01-24T15:15:59;19.65;;;12.82;;
30247;SDS011;17063;50.892;4.702;2023-01-24T15:21:15;22.23;;;13.85;;
30247;SDS011;17063;50.892;4.702;2023-01-24T15:23:47;23.10;;;13.07;;
30247;SDS011;17063;50.892;4.702;2023-01-24T15:32:18;20.27;;;13.00;;
30247;SDS011;17063;50.892;4.702;2023-01-24T15:34:45;23.30;;;12.65;;
30247;SDS011;17063;50.892;4.702;2023-01-24T15:37:13;23.65;;;11.95;;
30247;SDS011;17063;50.892;4.702;2023-01-24T15:39:41;20.58;;;12.18;;
30247;SDS011;17063;50.892;4.702;2023-01-24T15:42:15;20.35;;;11.38;;
30247;SDS011;17063;50.892;4.702;2023-01-24T15:45:02;19.33;;;11.57;;
30247;SDS011;17063;50.892;4.702;2023-01-24T15:47:30;25.38;;;12.02;;
30247;SDS011;17063;50.892;4.702;2023-01-24T15:50:14;25.63;;;12.88;;
30247;SDS011;17063;50.892;4.702;2023-01-24T15:55:48;65.68;;;14.10;;
30247;SDS011;17063;50.892;4.702;2023-01-24T15:58:16;26.05;;;12.65;;
30247;SDS011;17063;50.892;4.702;2023-01-24T16:00:50;21.08;;;12.13;;
30247;SDS011;17063;50.892;4.702;2023-01-24T16:03:18;18.17;;;11.25;;
30247;SDS011;17063;50.892;4.702;2023-01-24T16:05:47;20.85;;;11.98;;
30247;SDS011;17063;50.892;4.702;2023-01-24T16:08:15;18.17;;;11.55;;
30247;SDS011;17063;50.892;4.702;2023-01-24T16:10:41;18.88;;;11.70;;
30247;SDS011;17063;50.892;4.702;2023-01-24T16:13:33;17.92;;;11.13;;
30247;SDS011;17063;50.892;4.702;2023-01-24T16:16:06;17.63;;;10.27;;
30247;SDS011;17063;50.892;4.702;2023-01-24T16:18:39;19.13;;;11.07;;
30247;SDS011;17063;50.892;4.702;2023-01-24T16:21:08;20.10;;;10.70;;
30247;SDS011;17063;50.892;4.702;2023-01-24T16:23:35;18.73;;;11.02;;
30247;SDS011;17063;50.892;4.702;2023-01-24T16:26:02;20.83;;;11.10;;
30247;SDS011;17063;50.892;4.702;2023-01-24T16:28:31;21.88;;;12.05;;
30247;SDS011;17063;50.892;4.702;2023-01-24T16:30:59;18.48;;;10.60;;
30247;SDS011;17063;50.892;4.702;2023-01-24T16:33:28;19.58;;;11.05;;
30247;SDS011;17063;50.892;4.702;2023-01-24T16:35:55;21.05;;;10.93;;
30247;SDS011;17063;50.892;4.702;2023-01-24T16:38:22;22.85;;;10.68;;
30247;SDS011;17063;50.892;4.702;2023-01-24T16:40:50;20.67;;;11.85;;
30247;SDS011;17063;50.892;4.702;2023-01-24T16:43:18;21.67;;;11.68;;
30247;SDS011;17063;50.892;4.702;2023-01-24T16:45:47;20.20;;;12.00;;
30247;SDS011;17063;50.892;4.702;2023-01-24T16:48:15;20.63;;;11.52;;
30247;SDS011;17063;50.892;4.702;2023-01-24T16:50:43;18.60;;;11.35;;
30247;SDS011;17063;50.892;4.702;2023-01-24T16:53:11;22.07;;;12.03;;
30247;SDS011;17063;50.892;4.702;2023-01-24T16:55:39;26.00;;;12.20;;
30247;SDS011;17063;50.892;4.702;2023-01-24T16:58:11;19.92;;;12.27;;
30247;SDS011;17063;50.892;4.702;2023-01-24T17:00:38;18.42;;;11.27;;
30247;SDS011;17063;50.892;4.702;2023-01-24T17:03:05;20.80;;;12.32;;
30247;SDS011;17063;50.892;4.702;2023-01-24T17:05:32;22.80;;;11.95;;
30247;SDS011;17063;50.892;4.702;2023-01-24T17:07:59;22.90;;;11.95;;
30247;SDS011;17063;50.892;4.702;2023-01-24T17:10:26;19.02;;;11.15;;
30247;SDS011;17063;50.892;4.702;2023-01-24T17:12:54;18.75;;;10.98;;
30247;SDS011;17063;50.892;4.702;2023-01-24T17:15:21;20.70;;;11.25;;
30247;SDS011;17063;50.892;4.702;2023-01-24T17:17:48;20.45;;;11.32;;
30247;SDS011;17063;50.892;4.702;2023-01-24T17:20:15;20.27;;;11.75;;
30247;SDS011;17063;50.892;4.702;2023-01-24T17:22:42;21.25;;;11.63;;
30247;SDS011;17063;50.892;4.702;2023-01-24T17:25:09;20.73;;;10.90;;
30247;SDS011;17063;50.892;4.702;2023-01-24T17:27:36;18.38;;;10.73;;
30247;SDS011;17063;50.892;4.702;2023-01-24T17:30:04;22.92;;;12.13;;
30247;SDS011;17063;50.892;4.702;2023-01-24T17:32:32;19.80;;;11.38;;
30247;SDS011;17063;50.892;4.702;2023-01-24T17:34:59;20.77;;;11.80;;
30247;SDS011;17063;50.892;4.702;2023-01-24T17:37:26;22.25;;;11.93;;
30247;SDS011;17063;50.892;4.702;2023-01-24T17:39:53;21.33;;;11.57;;
30247;SDS011;17063;50.892;4.702;2023-01-24T17:42:20;23.38;;;12.40;;
30247;SDS011;17063;50.892;4.702;2023-01-24T17:44:47;20.20;;;12.43;;
30247;SDS011;17063;50.892;4.702;2023-01-24T17:47:14;21.35;;;12.40;;
30247;SDS011;17063;50.892;4.702;2023-01-24T17:49:41;22.20;;;12.32;;
30247;SDS011;17063;50.892;4.702;2023-01-24T17:52:08;20.15;;;12.07;;
30247;SDS011;17063;50.892;4.702;2023-01-24T17:54:34;22.85;;;12.85;;
30247;SDS011;17063;50.892;4.702;2023-01-24T17:57:01;20.20;;;12.23;;
30247;SDS011;17063;50.892;4.702;2023-01-24T17:59:28;21.80;;;12.57;;
30247;SDS011;17063;50.892;4.702;2023-01-24T18:01:55;20.80;;;12.50;;
30247;SDS011;17063;50.892;4.702;2023-01-24T18:04:24;22.75;;;13.05;;
30247;SDS011;17063;50.892;4.702;2023-01-24T18:06:51;28.42;;;13.68;;
30247;SDS011;17063;50.892;4.702;2023-01-24T18:09:18;22.27;;;13.20;;
30247;SDS011;17063;50.892;4.702;2023-01-24T18:11:46;26.27;;;13.35;;
30247;SDS011;17063;50.892;4.702;2023-01-24T18:14:13;23.83;;;12.67;;
30247;SDS011;17063;50.892;4.702;2023-01-24T18:16:40;21.07;;;13.00;;
30247;SDS011;17063;50.892;4.702;2023-01-24T18:19:07;25.40;;;13.50;;
30247;SDS011;17063;50.892;4.702;2023-01-24T18:21:34;21.87;;;13.13;;
30247;SDS011;17063;50.892;4.702;2023-01-24T18:24:01;24.20;;;13.10;;
30247;SDS011;17063;50.892;4.702;2023-01-24T18:26:29;24.73;;;13.80;;
30247;SDS011;17063;50.892;4.702;2023-01-24T18:28:56;25.73;;;13.00;;
30247;SDS011;17063;50.892;4.702;2023-01-24T18:31:24;22.15;;;13.20;;
30247;SDS011;17063;50.892;4.702;2023-01-24T18:33:56;24.40;;;13.55;;
30247;SDS011;17063;50.892;4.702;2023-01-24T18:36:27;23.00;;;13.35;;
30247;SDS011;17063;50.892;4.702;2023-01-24T18:38:54;22.85;;;12.27;;
30247;SDS011;17063;50.892;4.702;2023-01-24T18:41:22;21.23;;;12.50;;
30247;SDS011;17063;50.892;4.702;2023-01-24T18:43:49;21.08;;;12.52;;
30247;SDS011;17063;50.892;4.702;2023-01-24T18:46:16;21.45;;;13.15;;
30247;SDS011;17063;50.892;4.702;2023-01-24T18:48:43;22.75;;;13.18;;
30247;SDS011;17063;50.892;4.702;2023-01-24T18:51:14;22.33;;;13.38;;
30247;SDS011;17063;50.892;4.702;2023-01-24T18:53:43;21.83;;;13.80;;
30247;SDS011;17063;50.892;4.702;2023-01-24T18:56:11;23.47;;;14.07;;
30247;SDS011;17063;50.892;4.702;2023-01-24T18:58:38;24.20;;;14.23;;
30247;SDS011;17063;50.892;4.702;2023-01-24T19:03:37;22.57;;;13.80;;
30247;SDS011;17063;50.892;4.702;2023-01-24T19:06:10;22.75;;;13.73;;
30247;SDS011;17063;50.892;4.702;2023-01-24T19:08:37;23.15;;;14.75;;
30247;SDS011;17063;50.892;4.702;2023-01-24T19:11:17;26.40;;;13.77;;
30247;SDS011;17063;50.892;4.702;2023-01-24T19:13:44;24.00;;;14.63;;
30247;SDS011;17063;50.892;4.702;2023-01-24T19:16:12;25.75;;;15.10;;
30247;SDS011;17063;50.892;4.702;2023-01-24T19:18:39;27.33;;;16.33;;
30247;SDS011;17063;50.892;4.702;2023-01-24T19:21:06;25.13;;;15.60;;
30247;SDS011;17063;50.892;4.702;2023-01-24T19:23:35;26.17;;;14.53;;
30247;SDS011;17063;50.892;4.702;2023-01-24T19:26:04;25.27;;;15.20;;
30247;SDS011;17063;50.892;4.702;2023-01-24T19:28:34;23.83;;;15.17;;
30247;SDS011;17063;50.892;4.702;2023-01-24T19:31:04;25.97;;;15.93;;
30247;SDS011;17063;50.892;4.702;2023-01-24T19:33:34;27.00;;;14.90;;